sensor_id;sensor_type;location;lat;lon;timestamp;temperature;humidity
13164;DHT22;6647;53.688;10.746;2023-05-21T00:01:03;13.00;99.90
13164;DHT22;6647;53.688;10.746;2023-05-21T00:02:27;13.00;99.90
13164;DHT22;6647;53.688;10.746;2023-05-21T00:03:49;12.90;99.90
13164;DHT22;6647;53.688;10.746;2023-05-21T00:05:11;12.90;99.90
13164;DHT22;6647;53.688;10.746;2023-05-21T00:06:34;12.80;99.90
13164;DHT22;6647;53.688;10.746;2023-05-21T00:07:58;12.80;99.90
13164;DHT22;6647;53.688;10.746;2023-05-21T00:09:19;12.80;99.90
13164;DHT22;6647;53.688;10.746;2023-05-21T00:10:39;12.80;99.90
13164;DHT22;6647;53.688;10.746;2023-05-21T00:12:00;12.80;99.90
13164;DHT22;6647;53.688;10.746;2023-05-21T00:13:21;12.80;99.90
13164;DHT22;6647;53.688;10.746;2023-05-21T00:14:42;12.80;99.90
13164;DHT22;6647;53.688;10.746;2023-05-21T00:16:03;12.80;99.90
13164;DHT22;6647;53.688;10.746;2023-05-21T00:17:24;12.80;99.90
13164;DHT22;6647;53.688;10.746;2023-05-21T00:18:45;12.80;99.90
13164;DHT22;6647;53.688;10.746;2023-05-21T00:20:07;12.80;99.90
13164;DHT22;6647;53.688;10.746;2023-05-21T00:21:28;12.80;99.90
13164;DHT22;6647;53.688;10.746;2023-05-21T00:22:51;12.80;99.90
13164;DHT22;6647;53.688;10.746;2023-05-21T00:24:12;12.70;99.90
13164;DHT22;6647;53.688;10.746;2023-05-21T00:25:33;12.70;99.90
13164;DHT22;6647;53.688;10.746;2023-05-21T00:26:54;12.70;99.90
13164;DHT22;6647;53.688;10.746;2023-05-21T00:28:15;12.70;99.90
13164;DHT22;6647;53.688;10.746;2023-05-21T00:29:36;12.70;99.90
13164;DHT22;6647;53.688;10.746;2023-05-21T00:30:57;12.70;99.90
13164;DHT22;6647;53.688;10.746;2023-05-21T00:32:18;12.70;99.90
13164;DHT22;6647;53.688;10.746;2023-05-21T00:33:39;12.60;99.90
13164;DHT22;6647;53.688;10.746;2023-05-21T00:35:00;12.60;99.90
13164;DHT22;6647;53.688;10.746;2023-05-21T00:36:21;12.60;99.90
13164;DHT22;6647;53.688;10.746;2023-05-21T00:37:43;12.60;99.90
13164;DHT22;6647;53.688;10.746;2023-05-21T00:39:05;12.50;99.90
13164;DHT22;6647;53.688;10.746;2023-05-21T00:40:26;12.50;99.90
13164;DHT22;6647;53.688;10.746;2023-05-21T00:41:47;12.50;99.90
13164;DHT22;6647;53.688;10.746;2023-05-21T00:43:08;12.60;99.90
13164;DHT22;6647;53.688;10.746;2023-05-21T00:44:33;12.60;99.90
13164;DHT22;6647;53.688;10.746;2023-05-21T00:45:55;12.60;99.90
13164;DHT22;6647;53.688;10.746;2023-05-21T00:47:16;12.60;99.90
13164;DHT22;6647;53.688;10.746;2023-05-21T00:48:38;12.60;99.90
13164;DHT22;6647;53.688;10.746;2023-05-21T00:50:01;12.60;99.90
13164;DHT22;6647;53.688;10.746;2023-05-21T00:51:23;12.50;99.90
13164;DHT22;6647;53.688;10.746;2023-05-21T00:52:45;12.50;99.90
13164;DHT22;6647;53.688;10.746;2023-05-21T00:54:07;12.50;99.90
13164;DHT22;6647;53.688;10.746;2023-05-21T00:55:29;12.50;99.90
13164;DHT22;6647;53.688;10.746;2023-05-21T00:56:51;12.50;99.90
13164;DHT22;6647;53.688;10.746;2023-05-21T00:58:12;12.50;99.90
13164;DHT22;6647;53.688;10.746;2023-05-21T00:59:33;12.50;99.90
13164;DHT22;6647;53.688;10.746;2023-05-21T01:00:54;12.50;99.90
13164;DHT22;6647;53.688;10.746;2023-05-21T01:02:18;12.50;99.90
13164;DHT22;6647;53.688;10.746;2023-05-21T01:03:39;12.50;99.90
13164;DHT22;6647;53.688;10.746;2023-05-21T01:05:00;12.50;99.90
13164;DHT22;6647;53.688;10.746;2023-05-21T01:06:21;12.50;99.90
13164;DHT22;6647;53.688;10.746;2023-05-21T01:07:42;12.50;99.90
13164;DHT22;6647;53.688;10.746;2023-05-21T01:09:04;12.50;99.90
13164;DHT22;6647;53.688;10.746;2023-05-21T01:10:26;12.50;99.90
13164;DHT22;6647;53.688;10.746;2023-05-21T01:11:49;12.50;99.90
13164;DHT22;6647;53.688;10.746;2023-05-21T01:13:10;12.50;99.90
13164;DHT22;6647;53.688;10.746;2023-05-21T01:14:32;12.50;99.90
13164;DHT22;6647;53.688;10.746;2023-05-21T01:15:54;12.50;99.90
13164;DHT22;6647;53.688;10.746;2023-05-21T01:17:15;12.50;99.90
13164;DHT22;6647;53.688;10.746;2023-05-21T01:18:37;12.50;99.90
13164;DHT22;6647;53.688;10.746;2023-05-21T01:19:58;12.50;99.90
13164;DHT22;6647;53.688;10.746;2023-05-21T01:21:21;12.50;99.90
13164;DHT22;6647;53.688;10.746;2023-05-21T01:22:54;12.40;99.90
13164;DHT22;6647;53.688;10.746;2023-05-21T01:24:15;12.40;99.90
13164;DHT22;6647;53.688;10.746;2023-05-21T01:25:36;12.40;99.90
13164;DHT22;6647;53.688;10.746;2023-05-21T01:26:59;12.40;99.90
13164;DHT22;6647;53.688;10.746;2023-05-21T01:28:20;12.40;99.90
13164;DHT22;6647;53.688;10.746;2023-05-21T01:29:42;12.40;99.90
13164;DHT22;6647;53.688;10.746;2023-05-21T01:31:19;12.30;99.90
13164;DHT22;6647;53.688;10.746;2023-05-21T01:33:02;12.30;99.90
13164;DHT22;6647;53.688;10.746;2023-05-21T01:34:39;12.30;99.90
13164;DHT22;6647;53.688;10.746;2023-05-21T01:36:20;12.30;99.90
13164;DHT22;6647;53.688;10.746;2023-05-21T01:39:30;12.30;99.90
13164;DHT22;6647;53.688;10.746;2023-05-21T01:40:54;12.30;99.90
13164;DHT22;6647;53.688;10.746;2023-05-21T01:42:18;12.30;99.90
13164;DHT22;6647;53.688;10.746;2023-05-21T01:43:43;12.30;99.90
13164;DHT22;6647;53.688;10.746;2023-05-21T01:45:06;12.30;99.90
13164;DHT22;6647;53.688;10.746;2023-05-21T01:46:29;12.30;99.90
13164;DHT22;6647;53.688;10.746;2023-05-21T01:47:53;12.30;99.90
13164;DHT22;6647;53.688;10.746;2023-05-21T01:49:17;12.30;99.90
13164;DHT22;6647;53.688;10.746;2023-05-21T01:50:44;12.30;99.90
13164;DHT22;6647;53.688;10.746;2023-05-21T01:52:07;12.30;99.90
13164;DHT22;6647;53.688;10.746;2023-05-21T01:53:29;12.30;99.90
13164;DHT22;6647;53.688;10.746;2023-05-21T01:54:50;12.30;99.90
13164;DHT22;6647;53.688;10.746;2023-05-21T01:56:11;12.30;99.90
13164;DHT22;6647;53.688;10.746;2023-05-21T01:57:32;12.30;99.90
13164;DHT22;6647;53.688;10.746;2023-05-21T01:58:55;12.30;99.90
13164;DHT22;6647;53.688;10.746;2023-05-21T02:00:17;12.30;99.90
13164;DHT22;6647;53.688;10.746;2023-05-21T02:01:39;12.30;99.90
13164;DHT22;6647;53.688;10.746;2023-05-21T02:03:00;12.30;99.90
13164;DHT22;6647;53.688;10.746;2023-05-21T02:04:21;12.30;99.90
13164;DHT22;6647;53.688;10.746;2023-05-21T02:05:42;12.30;99.90
13164;DHT22;6647;53.688;10.746;2023-05-21T02:07:04;12.20;99.90
13164;DHT22;6647;53.688;10.746;2023-05-21T02:08:25;12.20;99.90
13164;DHT22;6647;53.688;10.746;2023-05-21T02:09:47;12.20;99.90
13164;DHT22;6647;53.688;10.746;2023-05-21T02:11:08;12.20;99.90
13164;DHT22;6647;53.688;10.746;2023-05-21T02:12:29;12.20;99.90
13164;DHT22;6647;53.688;10.746;2023-05-21T02:13:50;12.20;99.90
13164;DHT22;6647;53.688;10.746;2023-05-21T02:15:11;12.20;99.90
13164;DHT22;6647;53.688;10.746;2023-05-21T02:16:33;12.20;99.90
13164;DHT22;6647;53.688;10.746;2023-05-21T02:17:54;12.20;99.90
13164;DHT22;6647;53.688;10.746;2023-05-21T02:19:15;12.20;99.90
13164;DHT22;6647;53.688;10.746;2023-05-21T02:20:36;12.20;99.90
13164;DHT22;6647;53.688;10.746;2023-05-21T02:21:57;12.20;99.90
13164;DHT22;6647;53.688;10.746;2023-05-21T02:23:18;12.20;99.90
13164;DHT22;6647;53.688;10.746;2023-05-21T02:24:39;12.20;99.90
13164;DHT22;6647;53.688;10.746;2023-05-21T02:26:00;12.20;99.90
13164;DHT22;6647;53.688;10.746;2023-05-21T02:27:21;12.20;99.90
13164;DHT22;6647;53.688;10.746;2023-05-21T02:28:43;12.20;99.90
13164;DHT22;6647;53.688;10.746;2023-05-21T02:30:06;12.20;99.90
13164;DHT22;6647;53.688;10.746;2023-05-21T02:31:27;12.20;99.90
13164;DHT22;6647;53.688;10.746;2023-05-21T02:32:48;12.10;99.90
13164;DHT22;6647;53.688;10.746;2023-05-21T02:34:09;12.10;99.90
13164;DHT22;6647;53.688;10.746;2023-05-21T02:35:30;12.10;99.90
13164;DHT22;6647;53.688;10.746;2023-05-21T02:36:51;12.10;99.90
13164;DHT22;6647;53.688;10.746;2023-05-21T02:38:13;12.10;99.90
13164;DHT22;6647;53.688;10.746;2023-05-21T02:39:34;12.10;99.90
13164;DHT22;6647;53.688;10.746;2023-05-21T02:40:54;12.10;99.90
13164;DHT22;6647;53.688;10.746;2023-05-21T02:42:16;12.10;99.90
13164;DHT22;6647;53.688;10.746;2023-05-21T02:43:36;12.10;99.90
13164;DHT22;6647;53.688;10.746;2023-05-21T02:44:57;12.10;99.90
13164;DHT22;6647;53.688;10.746;2023-05-21T02:46:18;12.10;99.90
13164;DHT22;6647;53.688;10.746;2023-05-21T02:47:39;12.10;99.90
13164;DHT22;6647;53.688;10.746;2023-05-21T02:49:00;12.10;99.90
13164;DHT22;6647;53.688;10.746;2023-05-21T02:50:21;12.10;99.90
13164;DHT22;6647;53.688;10.746;2023-05-21T02:51:42;12.10;99.90
13164;DHT22;6647;53.688;10.746;2023-05-21T02:53:03;12.10;99.90
13164;DHT22;6647;53.688;10.746;2023-05-21T02:54:24;12.10;99.90
13164;DHT22;6647;53.688;10.746;2023-05-21T02:55:45;12.10;99.90
13164;DHT22;6647;53.688;10.746;2023-05-21T02:57:06;12.00;99.90
13164;DHT22;6647;53.688;10.746;2023-05-21T02:58:27;12.00;99.90
13164;DHT22;6647;53.688;10.746;2023-05-21T02:59:48;12.00;99.90
13164;DHT22;6647;53.688;10.746;2023-05-21T03:01:09;12.00;99.90
13164;DHT22;6647;53.688;10.746;2023-05-21T03:02:30;12.00;99.90
13164;DHT22;6647;53.688;10.746;2023-05-21T03:03:51;12.00;99.90
13164;DHT22;6647;53.688;10.746;2023-05-21T03:05:12;12.00;99.90
13164;DHT22;6647;53.688;10.746;2023-05-21T03:06:33;12.00;99.90
13164;DHT22;6647;53.688;10.746;2023-05-21T03:07:54;12.00;99.90
13164;DHT22;6647;53.688;10.746;2023-05-21T03:09:15;12.00;99.90
13164;DHT22;6647;53.688;10.746;2023-05-21T03:10:36;12.00;99.90
13164;DHT22;6647;53.688;10.746;2023-05-21T03:11:57;12.00;99.90
13164;DHT22;6647;53.688;10.746;2023-05-21T03:13:18;12.00;99.90
13164;DHT22;6647;53.688;10.746;2023-05-21T03:14:39;12.00;99.90
13164;DHT22;6647;53.688;10.746;2023-05-21T03:15:59;12.00;99.90
13164;DHT22;6647;53.688;10.746;2023-05-21T03:17:20;12.00;99.90
13164;DHT22;6647;53.688;10.746;2023-05-21T03:18:42;12.00;99.90
13164;DHT22;6647;53.688;10.746;2023-05-21T03:20:05;12.00;99.90
13164;DHT22;6647;53.688;10.746;2023-05-21T03:21:28;11.90;99.90
13164;DHT22;6647;53.688;10.746;2023-05-21T03:22:49;11.90;99.90
13164;DHT22;6647;53.688;10.746;2023-05-21T03:24:10;11.90;99.90
13164;DHT22;6647;53.688;10.746;2023-05-21T03:25:33;11.90;99.90
13164;DHT22;6647;53.688;10.746;2023-05-21T03:26:54;11.90;99.90
13164;DHT22;6647;53.688;10.746;2023-05-21T03:28:16;11.90;99.90
13164;DHT22;6647;53.688;10.746;2023-05-21T03:29:38;11.90;99.90
13164;DHT22;6647;53.688;10.746;2023-05-21T03:30:59;11.90;99.90
13164;DHT22;6647;53.688;10.746;2023-05-21T03:32:20;11.90;99.90
13164;DHT22;6647;53.688;10.746;2023-05-21T03:33:41;11.90;99.90
13164;DHT22;6647;53.688;10.746;2023-05-21T03:35:03;11.90;99.90
13164;DHT22;6647;53.688;10.746;2023-05-21T03:36:24;11.90;99.90
13164;DHT22;6647;53.688;10.746;2023-05-21T03:37:45;11.90;99.90
13164;DHT22;6647;53.688;10.746;2023-05-21T03:39:07;11.90;99.90
13164;DHT22;6647;53.688;10.746;2023-05-21T03:40:28;11.90;99.90
13164;DHT22;6647;53.688;10.746;2023-05-21T03:41:49;11.90;99.90
13164;DHT22;6647;53.688;10.746;2023-05-21T03:43:10;11.90;99.90
13164;DHT22;6647;53.688;10.746;2023-05-21T03:44:30;11.90;99.90
13164;DHT22;6647;53.688;10.746;2023-05-21T03:45:53;11.90;99.90
13164;DHT22;6647;53.688;10.746;2023-05-21T03:47:14;11.90;99.90
13164;DHT22;6647;53.688;10.746;2023-05-21T03:48:35;11.90;99.90
13164;DHT22;6647;53.688;10.746;2023-05-21T03:49:56;11.90;99.90
13164;DHT22;6647;53.688;10.746;2023-05-21T03:51:17;11.90;99.90
13164;DHT22;6647;53.688;10.746;2023-05-21T03:52:38;11.90;99.90
13164;DHT22;6647;53.688;10.746;2023-05-21T03:53:59;11.90;99.90
13164;DHT22;6647;53.688;10.746;2023-05-21T03:55:21;11.90;99.90
13164;DHT22;6647;53.688;10.746;2023-05-21T03:56:41;11.90;99.90
13164;DHT22;6647;53.688;10.746;2023-05-21T03:58:02;11.90;99.90
13164;DHT22;6647;53.688;10.746;2023-05-21T03:59:23;11.90;99.90
13164;DHT22;6647;53.688;10.746;2023-05-21T04:00:44;11.90;99.90
13164;DHT22;6647;53.688;10.746;2023-05-21T04:02:05;11.90;99.90
13164;DHT22;6647;53.688;10.746;2023-05-21T04:03:26;11.90;99.90
13164;DHT22;6647;53.688;10.746;2023-05-21T04:04:47;11.90;99.90
13164;DHT22;6647;53.688;10.746;2023-05-21T04:06:08;11.90;99.90
13164;DHT22;6647;53.688;10.746;2023-05-21T04:07:29;11.90;99.90
13164;DHT22;6647;53.688;10.746;2023-05-21T04:08:50;11.90;99.90
13164;DHT22;6647;53.688;10.746;2023-05-21T04:10:11;11.90;99.90
13164;DHT22;6647;53.688;10.746;2023-05-21T04:11:32;11.80;99.90
13164;DHT22;6647;53.688;10.746;2023-05-21T04:12:53;11.80;99.90
13164;DHT22;6647;53.688;10.746;2023-05-21T04:14:14;11.90;99.90
13164;DHT22;6647;53.688;10.746;2023-05-21T04:15:35;11.90;99.90
13164;DHT22;6647;53.688;10.746;2023-05-21T04:16:58;11.90;99.90
13164;DHT22;6647;53.688;10.746;2023-05-21T04:18:19;11.90;99.90
13164;DHT22;6647;53.688;10.746;2023-05-21T04:19:42;11.90;99.90
13164;DHT22;6647;53.688;10.746;2023-05-21T04:21:03;11.90;99.90
13164;DHT22;6647;53.688;10.746;2023-05-21T04:22:24;11.90;99.90
13164;DHT22;6647;53.688;10.746;2023-05-21T04:23:46;11.90;99.90
13164;DHT22;6647;53.688;10.746;2023-05-21T04:25:07;11.90;99.90
13164;DHT22;6647;53.688;10.746;2023-05-21T04:26:28;11.90;99.90
13164;DHT22;6647;53.688;10.746;2023-05-21T04:27:53;11.90;99.90
13164;DHT22;6647;53.688;10.746;2023-05-21T04:29:15;11.90;99.90
13164;DHT22;6647;53.688;10.746;2023-05-21T04:30:40;11.90;99.90
13164;DHT22;6647;53.688;10.746;2023-05-21T04:32:02;11.90;99.90
13164;DHT22;6647;53.688;10.746;2023-05-21T04:33:23;12.00;99.90
13164;DHT22;6647;53.688;10.746;2023-05-21T04:34:45;12.00;99.90
13164;DHT22;6647;53.688;10.746;2023-05-21T04:36:06;12.00;99.90
13164;DHT22;6647;53.688;10.746;2023-05-21T04:37:29;12.00;99.90
13164;DHT22;6647;53.688;10.746;2023-05-21T04:38:51;12.00;99.90
13164;DHT22;6647;53.688;10.746;2023-05-21T04:40:12;12.00;99.90
13164;DHT22;6647;53.688;10.746;2023-05-21T04:41:38;12.00;99.90
13164;DHT22;6647;53.688;10.746;2023-05-21T04:42:59;12.00;99.90
13164;DHT22;6647;53.688;10.746;2023-05-21T04:44:20;12.00;99.90
13164;DHT22;6647;53.688;10.746;2023-05-21T04:45:42;12.00;99.90
13164;DHT22;6647;53.688;10.746;2023-05-21T04:47:03;12.10;99.90
13164;DHT22;6647;53.688;10.746;2023-05-21T04:48:24;12.10;99.90
13164;DHT22;6647;53.688;10.746;2023-05-21T04:49:51;12.00;99.90
13164;DHT22;6647;53.688;10.746;2023-05-21T04:51:13;12.10;99.90
13164;DHT22;6647;53.688;10.746;2023-05-21T04:52:34;12.10;99.90
13164;DHT22;6647;53.688;10.746;2023-05-21T04:53:56;12.00;99.90
13164;DHT22;6647;53.688;10.746;2023-05-21T04:55:17;12.00;99.90
13164;DHT22;6647;53.688;10.746;2023-05-21T04:56:38;12.00;99.90
13164;DHT22;6647;53.688;10.746;2023-05-21T04:57:59;12.00;99.90
13164;DHT22;6647;53.688;10.746;2023-05-21T04:59:20;12.10;99.90
13164;DHT22;6647;53.688;10.746;2023-05-21T05:00:41;12.10;99.90
13164;DHT22;6647;53.688;10.746;2023-05-21T05:02:02;12.10;99.90
13164;DHT22;6647;53.688;10.746;2023-05-21T05:03:23;12.20;99.90
13164;DHT22;6647;53.688;10.746;2023-05-21T05:04:44;12.20;99.90
13164;DHT22;6647;53.688;10.746;2023-05-21T05:06:05;12.20;99.90
13164;DHT22;6647;53.688;10.746;2023-05-21T05:07:27;12.20;99.90
13164;DHT22;6647;53.688;10.746;2023-05-21T05:08:48;12.20;99.90
13164;DHT22;6647;53.688;10.746;2023-05-21T05:10:09;12.30;99.90
13164;DHT22;6647;53.688;10.746;2023-05-21T05:11:30;12.30;99.90
13164;DHT22;6647;53.688;10.746;2023-05-21T05:12:51;12.30;99.90
13164;DHT22;6647;53.688;10.746;2023-05-21T05:14:11;12.40;99.90
13164;DHT22;6647;53.688;10.746;2023-05-21T05:15:32;12.40;99.90
13164;DHT22;6647;53.688;10.746;2023-05-21T05:16:53;12.40;99.90
13164;DHT22;6647;53.688;10.746;2023-05-21T05:18:19;12.40;99.90
13164;DHT22;6647;53.688;10.746;2023-05-21T05:19:40;12.40;99.90
13164;DHT22;6647;53.688;10.746;2023-05-21T05:21:01;12.40;99.90
13164;DHT22;6647;53.688;10.746;2023-05-21T05:22:22;12.50;99.90
13164;DHT22;6647;53.688;10.746;2023-05-21T05:23:43;12.50;99.90
13164;DHT22;6647;53.688;10.746;2023-05-21T05:25:04;12.50;99.90
13164;DHT22;6647;53.688;10.746;2023-05-21T05:26:26;12.60;99.90
13164;DHT22;6647;53.688;10.746;2023-05-21T05:27:47;12.60;99.90
13164;DHT22;6647;53.688;10.746;2023-05-21T05:29:07;12.60;99.90
13164;DHT22;6647;53.688;10.746;2023-05-21T05:30:28;12.60;99.90
13164;DHT22;6647;53.688;10.746;2023-05-21T05:31:49;12.70;99.90
13164;DHT22;6647;53.688;10.746;2023-05-21T05:33:10;12.70;99.90
13164;DHT22;6647;53.688;10.746;2023-05-21T05:34:31;12.70;99.90
13164;DHT22;6647;53.688;10.746;2023-05-21T05:35:52;12.70;99.90
13164;DHT22;6647;53.688;10.746;2023-05-21T05:37:13;12.80;99.90
13164;DHT22;6647;53.688;10.746;2023-05-21T05:38:34;12.80;99.90
13164;DHT22;6647;53.688;10.746;2023-05-21T05:39:55;12.80;99.90
13164;DHT22;6647;53.688;10.746;2023-05-21T05:41:16;12.80;99.90
13164;DHT22;6647;53.688;10.746;2023-05-21T05:42:37;12.90;99.90
13164;DHT22;6647;53.688;10.746;2023-05-21T05:43:58;12.90;99.90
13164;DHT22;6647;53.688;10.746;2023-05-21T05:45:19;12.90;99.90
13164;DHT22;6647;53.688;10.746;2023-05-21T05:46:40;12.90;99.90
13164;DHT22;6647;53.688;10.746;2023-05-21T05:48:01;13.00;99.90
13164;DHT22;6647;53.688;10.746;2023-05-21T05:49:22;13.00;99.90
13164;DHT22;6647;53.688;10.746;2023-05-21T05:50:43;13.00;99.90
13164;DHT22;6647;53.688;10.746;2023-05-21T05:52:04;13.00;99.90
13164;DHT22;6647;53.688;10.746;2023-05-21T05:53:26;13.10;99.90
13164;DHT22;6647;53.688;10.746;2023-05-21T05:54:47;13.10;99.90
13164;DHT22;6647;53.688;10.746;2023-05-21T05:56:08;13.20;99.90
13164;DHT22;6647;53.688;10.746;2023-05-21T05:57:28;13.20;99.90
13164;DHT22;6647;53.688;10.746;2023-05-21T05:58:49;13.20;99.90
13164;DHT22;6647;53.688;10.746;2023-05-21T06:00:11;13.20;99.90
13164;DHT22;6647;53.688;10.746;2023-05-21T06:01:32;13.20;99.90
13164;DHT22;6647;53.688;10.746;2023-05-21T06:02:56;13.30;99.90
13164;DHT22;6647;53.688;10.746;2023-05-21T06:04:18;13.30;99.90
13164;DHT22;6647;53.688;10.746;2023-05-21T06:05:43;13.30;99.90
13164;DHT22;6647;53.688;10.746;2023-05-21T06:07:05;13.40;99.90
13164;DHT22;6647;53.688;10.746;2023-05-21T06:08:27;13.40;99.90
13164;DHT22;6647;53.688;10.746;2023-05-21T06:09:48;13.40;99.90
13164;DHT22;6647;53.688;10.746;2023-05-21T06:11:11;13.50;99.90
13164;DHT22;6647;53.688;10.746;2023-05-21T06:12:38;13.50;99.90
13164;DHT22;6647;53.688;10.746;2023-05-21T06:13:59;13.60;99.90
13164;DHT22;6647;53.688;10.746;2023-05-21T06:15:25;13.60;99.90
13164;DHT22;6647;53.688;10.746;2023-05-21T06:16:46;13.60;99.90
13164;DHT22;6647;53.688;10.746;2023-05-21T06:18:10;13.70;99.90
13164;DHT22;6647;53.688;10.746;2023-05-21T06:19:31;13.80;99.90
13164;DHT22;6647;53.688;10.746;2023-05-21T06:20:52;13.80;99.90
13164;DHT22;6647;53.688;10.746;2023-05-21T06:22:13;13.90;99.90
13164;DHT22;6647;53.688;10.746;2023-05-21T06:23:34;13.90;99.90
13164;DHT22;6647;53.688;10.746;2023-05-21T06:24:57;13.90;99.90
13164;DHT22;6647;53.688;10.746;2023-05-21T06:26:18;14.00;99.90
13164;DHT22;6647;53.688;10.746;2023-05-21T06:27:39;14.10;99.90
13164;DHT22;6647;53.688;10.746;2023-05-21T06:29:00;14.10;99.90
13164;DHT22;6647;53.688;10.746;2023-05-21T06:30:22;14.20;99.90
13164;DHT22;6647;53.688;10.746;2023-05-21T06:31:43;14.30;99.90
13164;DHT22;6647;53.688;10.746;2023-05-21T06:33:03;14.30;99.90
13164;DHT22;6647;53.688;10.746;2023-05-21T06:34:24;14.40;99.90
13164;DHT22;6647;53.688;10.746;2023-05-21T06:35:45;14.40;99.90
13164;DHT22;6647;53.688;10.746;2023-05-21T06:37:06;14.50;99.90
13164;DHT22;6647;53.688;10.746;2023-05-21T06:38:27;14.50;99.90
13164;DHT22;6647;53.688;10.746;2023-05-21T06:39:48;14.60;99.90
13164;DHT22;6647;53.688;10.746;2023-05-21T06:41:09;14.60;99.90
13164;DHT22;6647;53.688;10.746;2023-05-21T06:42:30;14.70;99.90
13164;DHT22;6647;53.688;10.746;2023-05-21T06:43:51;14.80;99.90
13164;DHT22;6647;53.688;10.746;2023-05-21T06:45:12;14.90;99.90
13164;DHT22;6647;53.688;10.746;2023-05-21T06:46:34;14.90;99.90
13164;DHT22;6647;53.688;10.746;2023-05-21T06:47:55;15.00;99.90
13164;DHT22;6647;53.688;10.746;2023-05-21T06:49:16;15.00;99.90
13164;DHT22;6647;53.688;10.746;2023-05-21T06:50:39;15.00;99.90
13164;DHT22;6647;53.688;10.746;2023-05-21T06:52:04;15.10;99.90
13164;DHT22;6647;53.688;10.746;2023-05-21T06:53:27;15.20;99.90
13164;DHT22;6647;53.688;10.746;2023-05-21T06:54:51;15.20;99.90
13164;DHT22;6647;53.688;10.746;2023-05-21T06:56:13;15.30;99.90
13164;DHT22;6647;53.688;10.746;2023-05-21T06:57:36;15.30;99.90
13164;DHT22;6647;53.688;10.746;2023-05-21T06:58:57;15.40;99.90
13164;DHT22;6647;53.688;10.746;2023-05-21T07:00:25;15.40;99.90
13164;DHT22;6647;53.688;10.746;2023-05-21T07:01:53;15.50;99.90
13164;DHT22;6647;53.688;10.746;2023-05-21T07:03:14;15.50;99.90
13164;DHT22;6647;53.688;10.746;2023-05-21T07:04:35;15.60;99.90
13164;DHT22;6647;53.688;10.746;2023-05-21T07:05:56;15.60;99.90
13164;DHT22;6647;53.688;10.746;2023-05-21T07:07:17;15.60;99.90
13164;DHT22;6647;53.688;10.746;2023-05-21T07:08:38;15.60;99.90
13164;DHT22;6647;53.688;10.746;2023-05-21T07:09:59;15.70;99.90
13164;DHT22;6647;53.688;10.746;2023-05-21T07:11:20;15.70;99.90
13164;DHT22;6647;53.688;10.746;2023-05-21T07:12:41;15.80;99.90
13164;DHT22;6647;53.688;10.746;2023-05-21T07:14:02;15.80;99.90
13164;DHT22;6647;53.688;10.746;2023-05-21T07:15:26;15.80;99.90
13164;DHT22;6647;53.688;10.746;2023-05-21T07:16:46;15.80;99.90
13164;DHT22;6647;53.688;10.746;2023-05-21T07:18:07;15.90;99.90
13164;DHT22;6647;53.688;10.746;2023-05-21T07:19:29;15.90;99.90
13164;DHT22;6647;53.688;10.746;2023-05-21T07:20:50;15.90;99.90
13164;DHT22;6647;53.688;10.746;2023-05-21T07:22:10;16.00;99.90
13164;DHT22;6647;53.688;10.746;2023-05-21T07:23:32;16.00;99.90
13164;DHT22;6647;53.688;10.746;2023-05-21T07:24:53;16.00;99.90
13164;DHT22;6647;53.688;10.746;2023-05-21T07:26:13;16.10;99.90
13164;DHT22;6647;53.688;10.746;2023-05-21T07:27:34;16.10;99.90
13164;DHT22;6647;53.688;10.746;2023-05-21T07:28:55;16.10;99.90
13164;DHT22;6647;53.688;10.746;2023-05-21T07:30:16;16.10;99.90
13164;DHT22;6647;53.688;10.746;2023-05-21T07:31:37;16.20;99.90
13164;DHT22;6647;53.688;10.746;2023-05-21T07:32:58;16.20;99.90
13164;DHT22;6647;53.688;10.746;2023-05-21T07:34:20;16.20;99.90
13164;DHT22;6647;53.688;10.746;2023-05-21T07:35:41;16.30;99.90
13164;DHT22;6647;53.688;10.746;2023-05-21T07:37:02;16.30;99.90
13164;DHT22;6647;53.688;10.746;2023-05-21T07:38:23;16.40;99.90
13164;DHT22;6647;53.688;10.746;2023-05-21T07:39:44;16.40;99.90
13164;DHT22;6647;53.688;10.746;2023-05-21T07:41:04;16.50;99.90
13164;DHT22;6647;53.688;10.746;2023-05-21T07:42:25;16.50;99.90
13164;DHT22;6647;53.688;10.746;2023-05-21T07:43:46;16.50;99.90
13164;DHT22;6647;53.688;10.746;2023-05-21T07:45:08;16.60;99.90
13164;DHT22;6647;53.688;10.746;2023-05-21T07:46:29;16.60;99.90
13164;DHT22;6647;53.688;10.746;2023-05-21T07:47:50;16.70;99.90
13164;DHT22;6647;53.688;10.746;2023-05-21T07:49:10;16.70;99.90
13164;DHT22;6647;53.688;10.746;2023-05-21T07:50:36;16.70;99.90
13164;DHT22;6647;53.688;10.746;2023-05-21T07:51:57;16.80;99.90
13164;DHT22;6647;53.688;10.746;2023-05-21T07:53:18;16.80;99.90
13164;DHT22;6647;53.688;10.746;2023-05-21T07:54:40;16.80;99.90
13164;DHT22;6647;53.688;10.746;2023-05-21T07:56:01;16.80;99.90
13164;DHT22;6647;53.688;10.746;2023-05-21T07:57:22;16.90;99.90
13164;DHT22;6647;53.688;10.746;2023-05-21T07:58:42;16.90;99.90
13164;DHT22;6647;53.688;10.746;2023-05-21T08:00:05;16.90;99.90
13164;DHT22;6647;53.688;10.746;2023-05-21T08:01:29;17.00;99.90
13164;DHT22;6647;53.688;10.746;2023-05-21T08:02:50;17.10;99.90
13164;DHT22;6647;53.688;10.746;2023-05-21T08:04:11;17.10;99.90
13164;DHT22;6647;53.688;10.746;2023-05-21T08:05:32;17.20;99.90
13164;DHT22;6647;53.688;10.746;2023-05-21T08:06:53;17.20;99.90
13164;DHT22;6647;53.688;10.746;2023-05-21T08:08:18;17.30;99.90
13164;DHT22;6647;53.688;10.746;2023-05-21T08:09:39;17.30;99.90
13164;DHT22;6647;53.688;10.746;2023-05-21T08:11:00;17.40;99.90
13164;DHT22;6647;53.688;10.746;2023-05-21T08:12:21;17.40;99.90
13164;DHT22;6647;53.688;10.746;2023-05-21T08:13:42;17.50;99.90
13164;DHT22;6647;53.688;10.746;2023-05-21T08:15:03;17.60;99.90
13164;DHT22;6647;53.688;10.746;2023-05-21T08:16:24;17.70;99.90
13164;DHT22;6647;53.688;10.746;2023-05-21T08:17:45;17.70;99.90
13164;DHT22;6647;53.688;10.746;2023-05-21T08:19:06;17.80;99.90
13164;DHT22;6647;53.688;10.746;2023-05-21T08:20:27;17.80;99.90
13164;DHT22;6647;53.688;10.746;2023-05-21T08:21:48;17.90;99.90
13164;DHT22;6647;53.688;10.746;2023-05-21T08:23:09;18.00;99.90
13164;DHT22;6647;53.688;10.746;2023-05-21T08:24:30;18.00;99.90
13164;DHT22;6647;53.688;10.746;2023-05-21T08:25:51;18.10;99.90
13164;DHT22;6647;53.688;10.746;2023-05-21T08:27:13;18.20;99.90
13164;DHT22;6647;53.688;10.746;2023-05-21T08:28:37;18.30;99.90
13164;DHT22;6647;53.688;10.746;2023-05-21T08:29:58;18.30;99.90
13164;DHT22;6647;53.688;10.746;2023-05-21T08:31:19;18.30;99.90
13164;DHT22;6647;53.688;10.746;2023-05-21T08:32:40;18.40;99.90
13164;DHT22;6647;53.688;10.746;2023-05-21T08:34:01;18.50;99.90
13164;DHT22;6647;53.688;10.746;2023-05-21T08:35:22;18.60;99.90
13164;DHT22;6647;53.688;10.746;2023-05-21T08:36:43;18.60;99.90
13164;DHT22;6647;53.688;10.746;2023-05-21T08:38:05;18.70;99.90